world map with NRT marked

NRT - Airport

This information may not be accurate or current and is not valid for navigation or flight planning. No warranty of fitness for any purpose is made or implied.

flag of Chibaflag of Japan

Donate via PayPal

Additional information is available on the NEW Great Circle Mapper

Location
City:  Tokyo, Chiba, Japan
Near (Alt.):Narita
Name:New Tokyo International Airport
ICAO / IATA:RJAA / NRT

Details
Type:Airport (Aerodrome, Airfield)
Use:Public/Civil
Latitude:35°45'55"N (35.765278)
Longitude:140°23'08"E (140.385556)
Elevation:135 ft (41 m)
Runways:2
Longest:13123 × 197 ft (4000 × 60 m)

Time
Timezone:UTC+9 (DST+11)
Local Time:

Weather
METAR:RJAA  220630Z 16012KT 130V200 9999 FEW040 BKN/// 32/23 Q1010 NOSIG RMK 1CU040 A2983
TAF:RJAA  220507Z 2206/2312 19010KT 9999 FEW020 SCT030= TAF RJBB 220510Z 2206/2312 22012KT 9999 FEW025 SCT045 TEMPO 2207/2210 TS FEW020 FEW025CB SCT035

Related Locations
Nearby:
Farthest:SUEX: 12255 mi / 19722 km
Montevideo East [Montevideo East UIR], UY

Find:

   beyond  
but within

Other Information
Maps:
Links:
Sources:

  


 


Great Circle Mapper   Great Circle Mapper
Great Circle Mapper FAQ   Great Circle Mapper FAQ
  Karl's Home Page
KLSē   KLSē Home
   GC on Facebook
Airlines of the World   Airlines of the World
Donate via PayPal


Copyright © 2004-2017, Karl L. Swartz. All rights reserved.
All trademarks mentioned herein belong to their respective owners.

Please see credits for attribution and copyright information.

Karl Swartz <karl@kls2.com>
  Powered by FreeBSD
Valid HTML 4.01!
Labeled with ICRA
hCard Microformat
Geo Microformat